sensor_id;sensor_type;location;lat;lon;timestamp;P1;durP1;ratioP1;P2;durP2;ratioP2
24357;SDS011;13668;52.154;5.580;2022-07-15T00:00:26;3.45;;;2.00;;
24357;SDS011;13668;52.154;5.580;2022-07-15T00:02:52;6.53;;;2.00;;
24357;SDS011;13668;52.154;5.580;2022-07-15T00:05:18;5.65;;;2.05;;
24357;SDS011;13668;52.154;5.580;2022-07-15T00:07:44;6.10;;;1.77;;
24357;SDS011;13668;52.154;5.580;2022-07-15T00:10:10;4.30;;;1.95;;
24357;SDS011;13668;52.154;5.580;2022-07-15T00:12:43;4.50;;;1.70;;
24357;SDS011;13668;52.154;5.580;2022-07-15T00:15:10;4.13;;;2.05;;
24357;SDS011;13668;52.154;5.580;2022-07-15T00:17:36;5.53;;;2.20;;
24357;SDS011;13668;52.154;5.580;2022-07-15T00:20:02;4.70;;;1.92;;
24357;SDS011;13668;52.154;5.580;2022-07-15T00:22:28;5.53;;;1.80;;
24357;SDS011;13668;52.154;5.580;2022-07-15T00:24:54;6.45;;;1.98;;
24357;SDS011;13668;52.154;5.580;2022-07-15T00:27:20;5.78;;;1.85;;
24357;SDS011;13668;52.154;5.580;2022-07-15T00:29:46;3.88;;;2.10;;
24357;SDS011;13668;52.154;5.580;2022-07-15T00:32:12;4.95;;;1.65;;
24357;SDS011;13668;52.154;5.580;2022-07-15T00:34:38;4.30;;;1.77;;
24357;SDS011;13668;52.154;5.580;2022-07-15T00:37:04;3.47;;;2.50;;
24357;SDS011;13668;52.154;5.580;2022-07-15T00:39:30;3.78;;;2.22;;
24357;SDS011;13668;52.154;5.580;2022-07-15T00:41:56;4.22;;;2.20;;
24357;SDS011;13668;52.154;5.580;2022-07-15T00:44:22;7.85;;;2.10;;
24357;SDS011;13668;52.154;5.580;2022-07-15T00:46:48;3.60;;;1.67;;
24357;SDS011;13668;52.154;5.580;2022-07-15T00:49:14;3.17;;;1.67;;
24357;SDS011;13668;52.154;5.580;2022-07-15T00:51:44;5.10;;;2.10;;
24357;SDS011;13668;52.154;5.580;2022-07-15T00:54:12;5.32;;;2.20;;
24357;SDS011;13668;52.154;5.580;2022-07-15T00:56:39;4.53;;;1.92;;
24357;SDS011;13668;52.154;5.580;2022-07-15T00:59:06;5.72;;;2.03;;
24357;SDS011;13668;52.154;5.580;2022-07-15T01:01:32;2.92;;;2.10;;
24357;SDS011;13668;52.154;5.580;2022-07-15T01:03:59;5.43;;;2.20;;
24357;SDS011;13668;52.154;5.580;2022-07-15T01:06:27;5.05;;;1.92;;
24357;SDS011;13668;52.154;5.580;2022-07-15T01:08:53;3.38;;;1.90;;
24357;SDS011;13668;52.154;5.580;2022-07-15T01:11:19;4.55;;;2.03;;
24357;SDS011;13668;52.154;5.580;2022-07-15T01:13:45;4.40;;;1.98;;
24357;SDS011;13668;52.154;5.580;2022-07-15T01:16:11;5.68;;;2.50;;
24357;SDS011;13668;52.154;5.580;2022-07-15T01:18:37;6.68;;;2.17;;
24357;SDS011;13668;52.154;5.580;2022-07-15T01:21:03;5.97;;;2.30;;
24357;SDS011;13668;52.154;5.580;2022-07-15T01:23:29;5.03;;;2.22;;
24357;SDS011;13668;52.154;5.580;2022-07-15T01:25:55;4.13;;;1.77;;
24357;SDS011;13668;52.154;5.580;2022-07-15T01:28:21;3.47;;;1.70;;
24357;SDS011;13668;52.154;5.580;2022-07-15T01:30:48;3.08;;;1.92;;
24357;SDS011;13668;52.154;5.580;2022-07-15T01:33:16;5.28;;;1.90;;
24357;SDS011;13668;52.154;5.580;2022-07-15T01:35:42;2.63;;;2.20;;
24357;SDS011;13668;52.154;5.580;2022-07-15T01:38:09;3.50;;;2.15;;
24357;SDS011;13668;52.154;5.580;2022-07-15T01:40:35;4.93;;;2.10;;
24357;SDS011;13668;52.154;5.580;2022-07-15T01:43:01;4.93;;;2.03;;
24357;SDS011;13668;52.154;5.580;2022-07-15T01:45:27;2.58;;;2.17;;
24357;SDS011;13668;52.154;5.580;2022-07-15T01:47:53;3.17;;;2.08;;
24357;SDS011;13668;52.154;5.580;2022-07-15T01:50:19;2.80;;;1.90;;
24357;SDS011;13668;52.154;5.580;2022-07-15T01:52:45;3.67;;;2.10;;
24357;SDS011;13668;52.154;5.580;2022-07-15T01:55:11;5.38;;;2.05;;
24357;SDS011;13668;52.154;5.580;2022-07-15T01:57:37;5.45;;;2.05;;
24357;SDS011;13668;52.154;5.580;2022-07-15T02:00:06;3.40;;;2.13;;
24357;SDS011;13668;52.154;5.580;2022-07-15T02:02:33;5.07;;;2.20;;
24357;SDS011;13668;52.154;5.580;2022-07-15T02:05:02;4.88;;;1.92;;
24357;SDS011;13668;52.154;5.580;2022-07-15T02:07:28;5.00;;;2.22;;
24357;SDS011;13668;52.154;5.580;2022-07-15T02:09:54;6.68;;;2.30;;
24357;SDS011;13668;52.154;5.580;2022-07-15T02:12:20;3.35;;;2.00;;
24357;SDS011;13668;52.154;5.580;2022-07-15T02:14:46;4.43;;;2.17;;
24357;SDS011;13668;52.154;5.580;2022-07-15T02:17:12;3.92;;;1.70;;
24357;SDS011;13668;52.154;5.580;2022-07-15T02:19:38;2.60;;;1.70;;
24357;SDS011;13668;52.154;5.580;2022-07-15T02:22:04;2.70;;;1.90;;
24357;SDS011;13668;52.154;5.580;2022-07-15T02:24:30;5.57;;;2.03;;
24357;SDS011;13668;52.154;5.580;2022-07-15T02:26:56;4.03;;;2.10;;
24357;SDS011;13668;52.154;5.580;2022-07-15T02:29:22;4.32;;;1.98;;
24357;SDS011;13668;52.154;5.580;2022-07-15T02:31:48;4.78;;;1.77;;
24357;SDS011;13668;52.154;5.580;2022-07-15T02:34:14;3.53;;;1.88;;
24357;SDS011;13668;52.154;5.580;2022-07-15T02:36:40;4.80;;;2.10;;
24357;SDS011;13668;52.154;5.580;2022-07-15T02:39:05;3.13;;;2.05;;
24357;SDS011;13668;52.154;5.580;2022-07-15T02:41:31;4.47;;;2.03;;
24357;SDS011;13668;52.154;5.580;2022-07-15T02:43:57;3.22;;;2.30;;
24357;SDS011;13668;52.154;5.580;2022-07-15T02:46:24;3.70;;;1.73;;
24357;SDS011;13668;52.154;5.580;2022-07-15T02:48:51;6.57;;;1.98;;
24357;SDS011;13668;52.154;5.580;2022-07-15T02:51:16;3.72;;;2.28;;
24357;SDS011;13668;52.154;5.580;2022-07-15T02:53:42;6.07;;;2.10;;
24357;SDS011;13668;52.154;5.580;2022-07-15T02:56:08;4.03;;;1.90;;
24357;SDS011;13668;52.154;5.580;2022-07-15T02:58:34;3.83;;;2.30;;
24357;SDS011;13668;52.154;5.580;2022-07-15T03:01:00;4.05;;;1.85;;
24357;SDS011;13668;52.154;5.580;2022-07-15T03:03:26;3.88;;;1.77;;
24357;SDS011;13668;52.154;5.580;2022-07-15T03:05:53;3.55;;;1.70;;
24357;SDS011;13668;52.154;5.580;2022-07-15T03:08:18;3.78;;;1.92;;
24357;SDS011;13668;52.154;5.580;2022-07-15T03:10:45;4.75;;;2.00;;
24357;SDS011;13668;52.154;5.580;2022-07-15T03:13:11;2.67;;;1.88;;
24357;SDS011;13668;52.154;5.580;2022-07-15T03:15:37;2.38;;;2.10;;
24357;SDS011;13668;52.154;5.580;2022-07-15T03:18:03;6.47;;;2.13;;
24357;SDS011;13668;52.154;5.580;2022-07-15T03:20:29;3.72;;;1.70;;
24357;SDS011;13668;52.154;5.580;2022-07-15T03:22:55;4.10;;;2.00;;
24357;SDS011;13668;52.154;5.580;2022-07-15T03:25:21;5.03;;;1.98;;
24357;SDS011;13668;52.154;5.580;2022-07-15T03:27:47;6.13;;;2.22;;
24357;SDS011;13668;52.154;5.580;2022-07-15T03:30:13;1.98;;;1.85;;
24357;SDS011;13668;52.154;5.580;2022-07-15T03:32:39;6.22;;;2.13;;
24357;SDS011;13668;52.154;5.580;2022-07-15T03:35:05;2.80;;;1.70;;
24357;SDS011;13668;52.154;5.580;2022-07-15T03:37:31;3.08;;;1.73;;
24357;SDS011;13668;52.154;5.580;2022-07-15T03:39:57;4.13;;;2.50;;
24357;SDS011;13668;52.154;5.580;2022-07-15T03:42:23;2.83;;;1.55;;
24357;SDS011;13668;52.154;5.580;2022-07-15T03:44:49;3.20;;;1.63;;
24357;SDS011;13668;52.154;5.580;2022-07-15T03:47:15;3.85;;;2.10;;
24357;SDS011;13668;52.154;5.580;2022-07-15T03:49:41;5.10;;;1.65;;
24357;SDS011;13668;52.154;5.580;2022-07-15T03:52:07;3.67;;;1.60;;
24357;SDS011;13668;52.154;5.580;2022-07-15T03:54:33;3.92;;;1.92;;
24357;SDS011;13668;52.154;5.580;2022-07-15T03:57:00;3.25;;;1.90;;
24357;SDS011;13668;52.154;5.580;2022-07-15T03:59:25;4.50;;;1.83;;
24357;SDS011;13668;52.154;5.580;2022-07-15T04:01:51;5.07;;;1.88;;
24357;SDS011;13668;52.154;5.580;2022-07-15T04:04:18;3.03;;;1.50;;
24357;SDS011;13668;52.154;5.580;2022-07-15T04:06:44;4.00;;;2.38;;
24357;SDS011;13668;52.154;5.580;2022-07-15T04:09:16;3.97;;;2.03;;
24357;SDS011;13668;52.154;5.580;2022-07-15T04:11:42;4.72;;;1.90;;
24357;SDS011;13668;52.154;5.580;2022-07-15T04:14:09;4.50;;;1.48;;
24357;SDS011;13668;52.154;5.580;2022-07-15T04:16:36;2.47;;;1.95;;
24357;SDS011;13668;52.154;5.580;2022-07-15T04:19:02;2.67;;;2.15;;
24357;SDS011;13668;52.154;5.580;2022-07-15T04:21:28;2.78;;;1.70;;
24357;SDS011;13668;52.154;5.580;2022-07-15T04:23:54;5.68;;;2.63;;
24357;SDS011;13668;52.154;5.580;2022-07-15T04:26:19;4.55;;;1.80;;
24357;SDS011;13668;52.154;5.580;2022-07-15T04:28:45;4.63;;;2.08;;
24357;SDS011;13668;52.154;5.580;2022-07-15T04:31:12;3.72;;;1.85;;
24357;SDS011;13668;52.154;5.580;2022-07-15T04:33:38;4.55;;;2.10;;
24357;SDS011;13668;52.154;5.580;2022-07-15T04:36:04;2.58;;;1.67;;
24357;SDS011;13668;52.154;5.580;2022-07-15T04:38:30;4.10;;;2.00;;
24357;SDS011;13668;52.154;5.580;2022-07-15T04:40:56;2.75;;;1.83;;
24357;SDS011;13668;52.154;5.580;2022-07-15T04:43:22;7.78;;;2.10;;
24357;SDS011;13668;52.154;5.580;2022-07-15T04:45:49;4.85;;;1.92;;
24357;SDS011;13668;52.154;5.580;2022-07-15T04:48:15;5.00;;;1.67;;
24357;SDS011;13668;52.154;5.580;2022-07-15T04:51:00;4.40;;;1.80;;
24357;SDS011;13668;52.154;5.580;2022-07-15T04:53:26;4.85;;;2.05;;
24357;SDS011;13668;52.154;5.580;2022-07-15T04:55:52;5.05;;;2.10;;
24357;SDS011;13668;52.154;5.580;2022-07-15T04:58:18;3.60;;;1.67;;
24357;SDS011;13668;52.154;5.580;2022-07-15T05:00:45;4.35;;;1.77;;
24357;SDS011;13668;52.154;5.580;2022-07-15T05:03:11;3.17;;;1.55;;
24357;SDS011;13668;52.154;5.580;2022-07-15T05:05:37;5.90;;;1.90;;
24357;SDS011;13668;52.154;5.580;2022-07-15T05:08:03;5.43;;;2.13;;
24357;SDS011;13668;52.154;5.580;2022-07-15T05:10:29;3.00;;;1.42;;
24357;SDS011;13668;52.154;5.580;2022-07-15T05:12:55;3.42;;;1.80;;
24357;SDS011;13668;52.154;5.580;2022-07-15T05:15:22;5.10;;;1.60;;
24357;SDS011;13668;52.154;5.580;2022-07-15T05:17:48;2.72;;;1.50;;
24357;SDS011;13668;52.154;5.580;2022-07-15T05:20:14;5.07;;;1.55;;
24357;SDS011;13668;52.154;5.580;2022-07-15T05:22:40;6.95;;;1.58;;
24357;SDS011;13668;52.154;5.580;2022-07-15T05:25:06;5.72;;;1.67;;
24357;SDS011;13668;52.154;5.580;2022-07-15T05:27:32;3.90;;;1.85;;
24357;SDS011;13668;52.154;5.580;2022-07-15T05:29:58;4.53;;;1.63;;
24357;SDS011;13668;52.154;5.580;2022-07-15T05:32:24;5.47;;;1.40;;
24357;SDS011;13668;52.154;5.580;2022-07-15T05:34:49;6.38;;;2.00;;
24357;SDS011;13668;52.154;5.580;2022-07-15T05:37:16;10.10;;;2.85;;
24357;SDS011;13668;52.154;5.580;2022-07-15T05:39:42;5.78;;;1.30;;
24357;SDS011;13668;52.154;5.580;2022-07-15T05:42:19;2.42;;;1.10;;
24357;SDS011;13668;52.154;5.580;2022-07-15T05:44:45;2.70;;;1.55;;
24357;SDS011;13668;52.154;5.580;2022-07-15T05:47:11;4.38;;;2.00;;
24357;SDS011;13668;52.154;5.580;2022-07-15T05:49:37;4.65;;;1.60;;
24357;SDS011;13668;52.154;5.580;2022-07-15T05:52:03;6.15;;;1.90;;
24357;SDS011;13668;52.154;5.580;2022-07-15T05:54:29;6.40;;;1.83;;
24357;SDS011;13668;52.154;5.580;2022-07-15T05:56:55;5.75;;;1.98;;
24357;SDS011;13668;52.154;5.580;2022-07-15T05:59:21;3.63;;;1.45;;
24357;SDS011;13668;52.154;5.580;2022-07-15T06:01:47;3.10;;;1.70;;
24357;SDS011;13668;52.154;5.580;2022-07-15T06:04:13;7.18;;;1.52;;
24357;SDS011;13668;52.154;5.580;2022-07-15T06:06:39;3.72;;;1.60;;
24357;SDS011;13668;52.154;5.580;2022-07-15T06:09:05;4.45;;;1.60;;
24357;SDS011;13668;52.154;5.580;2022-07-15T06:11:31;4.45;;;1.73;;
24357;SDS011;13668;52.154;5.580;2022-07-15T06:13:57;4.00;;;1.20;;
24357;SDS011;13668;52.154;5.580;2022-07-15T06:16:22;5.72;;;1.48;;
24357;SDS011;13668;52.154;5.580;2022-07-15T06:18:48;5.53;;;1.00;;
24357;SDS011;13668;52.154;5.580;2022-07-15T06:21:15;3.75;;;0.85;;
24357;SDS011;13668;52.154;5.580;2022-07-15T06:23:41;2.03;;;0.88;;
24357;SDS011;13668;52.154;5.580;2022-07-15T06:26:07;6.90;;;1.20;;
24357;SDS011;13668;52.154;5.580;2022-07-15T06:28:34;2.42;;;0.93;;
24357;SDS011;13668;52.154;5.580;2022-07-15T06:31:00;7.85;;;2.25;;
24357;SDS011;13668;52.154;5.580;2022-07-15T06:33:26;3.83;;;1.27;;
24357;SDS011;13668;52.154;5.580;2022-07-15T06:35:52;7.13;;;1.25;;
24357;SDS011;13668;52.154;5.580;2022-07-15T06:38:19;6.55;;;1.90;;
24357;SDS011;13668;52.154;5.580;2022-07-15T06:40:45;2.35;;;1.20;;
24357;SDS011;13668;52.154;5.580;2022-07-15T06:43:11;3.58;;;1.33;;
24357;SDS011;13668;52.154;5.580;2022-07-15T06:45:37;6.53;;;1.70;;
24357;SDS011;13668;52.154;5.580;2022-07-15T06:48:04;1.63;;;0.65;;
24357;SDS011;13668;52.154;5.580;2022-07-15T06:50:30;4.80;;;0.85;;
24357;SDS011;13668;52.154;5.580;2022-07-15T06:52:56;3.13;;;1.00;;
24357;SDS011;13668;52.154;5.580;2022-07-15T06:55:22;3.13;;;0.85;;
24357;SDS011;13668;52.154;5.580;2022-07-15T06:57:48;3.35;;;1.55;;
24357;SDS011;13668;52.154;5.580;2022-07-15T07:00:14;3.80;;;1.20;;
24357;SDS011;13668;52.154;5.580;2022-07-15T07:02:40;4.55;;;1.00;;
24357;SDS011;13668;52.154;5.580;2022-07-15T07:05:07;2.88;;;1.17;;
24357;SDS011;13668;52.154;5.580;2022-07-15T07:07:33;4.95;;;1.38;;
24357;SDS011;13668;52.154;5.580;2022-07-15T07:09:59;4.03;;;1.00;;
24357;SDS011;13668;52.154;5.580;2022-07-15T07:12:25;4.15;;;1.00;;
24357;SDS011;13668;52.154;5.580;2022-07-15T07:14:51;1.50;;;0.93;;
24357;SDS011;13668;52.154;5.580;2022-07-15T07:17:18;4.13;;;1.20;;
24357;SDS011;13668;52.154;5.580;2022-07-15T07:19:44;2.55;;;0.70;;
24357;SDS011;13668;52.154;5.580;2022-07-15T07:22:10;1.65;;;0.60;;
24357;SDS011;13668;52.154;5.580;2022-07-15T07:24:36;2.10;;;0.80;;
24357;SDS011;13668;52.154;5.580;2022-07-15T07:27:05;3.25;;;0.85;;
24357;SDS011;13668;52.154;5.580;2022-07-15T07:29:31;3.28;;;0.80;;
24357;SDS011;13668;52.154;5.580;2022-07-15T07:31:57;2.55;;;1.25;;
24357;SDS011;13668;52.154;5.580;2022-07-15T07:34:23;2.35;;;0.77;;
24357;SDS011;13668;52.154;5.580;2022-07-15T07:36:49;2.83;;;0.88;;
24357;SDS011;13668;52.154;5.580;2022-07-15T07:39:15;3.70;;;0.77;;
24357;SDS011;13668;52.154;5.580;2022-07-15T07:41:41;2.30;;;0.98;;
24357;SDS011;13668;52.154;5.580;2022-07-15T07:44:07;4.05;;;0.93;;
24357;SDS011;13668;52.154;5.580;2022-07-15T07:46:34;3.75;;;0.80;;
24357;SDS011;13668;52.154;5.580;2022-07-15T07:49:00;6.38;;;0.95;;
24357;SDS011;13668;52.154;5.580;2022-07-15T07:51:26;0.80;;;0.52;;
24357;SDS011;13668;52.154;5.580;2022-07-15T07:53:55;3.20;;;0.60;;
24357;SDS011;13668;52.154;5.580;2022-07-15T07:56:21;2.30;;;1.00;;
24357;SDS011;13668;52.154;5.580;2022-07-15T07:58:47;2.50;;;0.60;;
24357;SDS011;13668;52.154;5.580;2022-07-15T08:01:13;3.30;;;0.60;;
24357;SDS011;13668;52.154;5.580;2022-07-15T08:03:39;5.07;;;0.65;;
24357;SDS011;13668;52.154;5.580;2022-07-15T08:06:05;1.83;;;0.40;;
24357;SDS011;13668;52.154;5.580;2022-07-15T08:08:31;1.17;;;0.30;;
24357;SDS011;13668;52.154;5.580;2022-07-15T08:10:57;2.28;;;0.50;;
24357;SDS011;13668;52.154;5.580;2022-07-15T08:13:24;2.13;;;0.63;;
24357;SDS011;13668;52.154;5.580;2022-07-15T08:15:51;2.50;;;0.38;;
24357;SDS011;13668;52.154;5.580;2022-07-15T08:18:22;2.92;;;0.60;;
24357;SDS011;13668;52.154;5.580;2022-07-15T08:20:48;2.13;;;0.45;;
24357;SDS011;13668;52.154;5.580;2022-07-15T08:23:14;1.65;;;0.28;;
24357;SDS011;13668;52.154;5.580;2022-07-15T08:25:45;0.98;;;0.32;;
24357;SDS011;13668;52.154;5.580;2022-07-15T08:28:11;3.15;;;0.47;;
24357;SDS011;13668;52.154;5.580;2022-07-15T08:30:37;2.53;;;0.50;;
24357;SDS011;13668;52.154;5.580;2022-07-15T08:33:03;4.88;;;0.50;;
24357;SDS011;13668;52.154;5.580;2022-07-15T08:35:29;2.03;;;0.32;;
24357;SDS011;13668;52.154;5.580;2022-07-15T08:37:55;1.55;;;0.40;;
24357;SDS011;13668;52.154;5.580;2022-07-15T08:40:21;2.75;;;0.40;;
24357;SDS011;13668;52.154;5.580;2022-07-15T08:42:49;2.03;;;0.73;;
24357;SDS011;13668;52.154;5.580;2022-07-15T08:45:15;1.10;;;0.25;;
24357;SDS011;13668;52.154;5.580;2022-07-15T08:47:43;1.10;;;0.40;;
24357;SDS011;13668;52.154;5.580;2022-07-15T08:50:09;1.17;;;0.45;;
24357;SDS011;13668;52.154;5.580;2022-07-15T08:52:43;1.95;;;0.52;;
24357;SDS011;13668;52.154;5.580;2022-07-15T08:55:09;1.38;;;0.30;;
24357;SDS011;13668;52.154;5.580;2022-07-15T08:57:35;3.13;;;0.30;;
24357;SDS011;13668;52.154;5.580;2022-07-15T09:00:02;1.08;;;0.35;;
24357;SDS011;13668;52.154;5.580;2022-07-15T09:02:32;0.90;;;0.40;;
24357;SDS011;13668;52.154;5.580;2022-07-15T09:10:18;1.08;;;0.47;;
24357;SDS011;13668;52.154;5.580;2022-07-15T09:12:44;2.00;;;0.50;;
24357;SDS011;13668;52.154;5.580;2022-07-15T09:15:29;3.63;;;0.40;;
24357;SDS011;13668;52.154;5.580;2022-07-15T09:18:09;3.08;;;0.43;;
24357;SDS011;13668;52.154;5.580;2022-07-15T09:20:35;0.80;;;0.30;;
24357;SDS011;13668;52.154;5.580;2022-07-15T09:23:02;0.98;;;0.30;;
24357;SDS011;13668;52.154;5.580;2022-07-15T09:25:28;1.45;;;0.30;;
24357;SDS011;13668;52.154;5.580;2022-07-15T09:27:55;2.97;;;0.40;;
24357;SDS011;13668;52.154;5.580;2022-07-15T09:30:26;1.48;;;0.57;;
24357;SDS011;13668;52.154;5.580;2022-07-15T09:33:12;1.85;;;0.40;;
24357;SDS011;13668;52.154;5.580;2022-07-15T09:36:14;1.60;;;0.40;;
24357;SDS011;13668;52.154;5.580;2022-07-15T09:38:50;1.40;;;0.40;;
24357;SDS011;13668;52.154;5.580;2022-07-15T09:41:31;1.45;;;0.28;;
24357;SDS011;13668;52.154;5.580;2022-07-15T09:46:24;0.90;;;0.25;;
24357;SDS011;13668;52.154;5.580;2022-07-15T09:48:51;1.17;;;0.10;;
24357;SDS011;13668;52.154;5.580;2022-07-15T09:51:18;0.93;;;0.20;;
24357;SDS011;13668;52.154;5.580;2022-07-15T09:53:44;4.32;;;0.55;;
24357;SDS011;13668;52.154;5.580;2022-07-15T09:56:14;2.17;;;0.40;;
24357;SDS011;13668;52.154;5.580;2022-07-15T09:58:42;3.85;;;0.52;;
24357;SDS011;13668;52.154;5.580;2022-07-15T10:01:08;1.00;;;0.30;;
24357;SDS011;13668;52.154;5.580;2022-07-15T10:03:35;1.90;;;0.50;;
24357;SDS011;13668;52.154;5.580;2022-07-15T10:06:01;0.93;;;0.22;;
24357;SDS011;13668;52.154;5.580;2022-07-15T10:08:28;1.67;;;0.30;;
24357;SDS011;13668;52.154;5.580;2022-07-15T10:10:55;2.10;;;0.43;;
24357;SDS011;13668;52.154;5.580;2022-07-15T10:18:21;3.63;;;0.57;;
24357;SDS011;13668;52.154;5.580;2022-07-15T10:26:07;2.25;;;0.47;;
24357;SDS011;13668;52.154;5.580;2022-07-15T10:28:42;0.60;;;0.30;;
24357;SDS011;13668;52.154;5.580;2022-07-15T10:31:15;2.65;;;0.50;;
24357;SDS011;13668;52.154;5.580;2022-07-15T10:33:41;1.42;;;0.40;;
24357;SDS011;13668;52.154;5.580;2022-07-15T10:36:08;2.03;;;0.40;;
24357;SDS011;13668;52.154;5.580;2022-07-15T10:38:37;0.88;;;0.30;;
24357;SDS011;13668;52.154;5.580;2022-07-15T10:43:48;4.18;;;0.60;;
24357;SDS011;13668;52.154;5.580;2022-07-15T10:48:44;4.72;;;0.57;;
24357;SDS011;13668;52.154;5.580;2022-07-15T10:51:11;2.33;;;0.50;;
24357;SDS011;13668;52.154;5.580;2022-07-15T10:53:44;3.60;;;0.75;;
24357;SDS011;13668;52.154;5.580;2022-07-15T10:56:26;2.80;;;0.60;;
24357;SDS011;13668;52.154;5.580;2022-07-15T11:01:38;2.28;;;0.45;;
24357;SDS011;13668;52.154;5.580;2022-07-15T11:09:46;1.75;;;0.30;;
24357;SDS011;13668;52.154;5.580;2022-07-15T11:12:13;3.17;;;0.40;;
24357;SDS011;13668;52.154;5.580;2022-07-15T11:17:15;1.05;;;0.50;;
24357;SDS011;13668;52.154;5.580;2022-07-15T11:19:42;1.88;;;0.30;;
24357;SDS011;13668;52.154;5.580;2022-07-15T11:22:08;0.95;;;0.20;;
24357;SDS011;13668;52.154;5.580;2022-07-15T11:24:35;3.80;;;0.60;;
24357;SDS011;13668;52.154;5.580;2022-07-15T11:27:01;1.45;;;0.35;;
24357;SDS011;13668;52.154;5.580;2022-07-15T11:29:43;0.90;;;0.43;;
24357;SDS011;13668;52.154;5.580;2022-07-15T11:32:10;1.95;;;0.50;;
24357;SDS011;13668;52.154;5.580;2022-07-15T11:34:40;1.23;;;0.40;;
24357;SDS011;13668;52.154;5.580;2022-07-15T11:37:06;1.27;;;0.55;;
24357;SDS011;13668;52.154;5.580;2022-07-15T11:39:32;2.42;;;0.55;;
24357;SDS011;13668;52.154;5.580;2022-07-15T11:41:58;13.13;;;1.10;;
24357;SDS011;13668;52.154;5.580;2022-07-15T11:44:50;3.13;;;0.75;;
24357;SDS011;13668;52.154;5.580;2022-07-15T11:47:16;1.25;;;0.38;;
24357;SDS011;13668;52.154;5.580;2022-07-15T11:49:42;0.80;;;0.28;;
24357;SDS011;13668;52.154;5.580;2022-07-15T11:52:22;1.27;;;0.40;;
24357;SDS011;13668;52.154;5.580;2022-07-15T11:54:49;5.85;;;0.60;;
24357;SDS011;13668;52.154;5.580;2022-07-15T11:57:15;1.13;;;0.50;;
24357;SDS011;13668;52.154;5.580;2022-07-15T11:59:50;2.78;;;0.35;;
24357;SDS011;13668;52.154;5.580;2022-07-15T12:02:16;2.28;;;0.50;;
24357;SDS011;13668;52.154;5.580;2022-07-15T12:04:43;6.70;;;0.80;;
24357;SDS011;13668;52.154;5.580;2022-07-15T12:07:09;0.80;;;0.40;;
24357;SDS011;13668;52.154;5.580;2022-07-15T12:09:41;1.25;;;0.40;;
24357;SDS011;13668;52.154;5.580;2022-07-15T12:12:08;2.13;;;0.55;;
24357;SDS011;13668;52.154;5.580;2022-07-15T12:14:34;0.85;;;0.20;;
24357;SDS011;13668;52.154;5.580;2022-07-15T12:17:00;0.88;;;0.40;;
24357;SDS011;13668;52.154;5.580;2022-07-15T12:19:28;2.80;;;0.45;;
24357;SDS011;13668;52.154;5.580;2022-07-15T12:21:56;2.92;;;0.30;;
24357;SDS011;13668;52.154;5.580;2022-07-15T12:24:23;1.70;;;0.40;;
24357;SDS011;13668;52.154;5.580;2022-07-15T12:29:18;15.65;;;2.72;;
24357;SDS011;13668;52.154;5.580;2022-07-15T12:31:57;4.95;;;0.40;;
24357;SDS011;13668;52.154;5.580;2022-07-15T12:37:08;1.95;;;0.40;;
24357;SDS011;13668;52.154;5.580;2022-07-15T12:39:38;1.38;;;0.32;;
24357;SDS011;13668;52.154;5.580;2022-07-15T12:42:18;0.95;;;0.43;;
24357;SDS011;13668;52.154;5.580;2022-07-15T12:44:44;0.57;;;0.32;;
24357;SDS011;13668;52.154;5.580;2022-07-15T12:47:10;2.47;;;0.63;;
24357;SDS011;13668;52.154;5.580;2022-07-15T12:49:37;2.78;;;0.40;;
24357;SDS011;13668;52.154;5.580;2022-07-15T12:52:19;4.53;;;0.40;;
24357;SDS011;13668;52.154;5.580;2022-07-15T12:54:46;0.52;;;0.30;;
24357;SDS011;13668;52.154;5.580;2022-07-15T12:59:58;2.80;;;0.40;;
24357;SDS011;13668;52.154;5.580;2022-07-15T13:02:24;0.88;;;0.30;;
24357;SDS011;13668;52.154;5.580;2022-07-15T13:04:50;6.88;;;0.65;;
24357;SDS011;13668;52.154;5.580;2022-07-15T13:07:16;1.35;;;0.40;;
24357;SDS011;13668;52.154;5.580;2022-07-15T13:09:43;2.20;;;0.40;;
24357;SDS011;13668;52.154;5.580;2022-07-15T13:12:10;2.05;;;0.45;;
24357;SDS011;13668;52.154;5.580;2022-07-15T13:14:36;1.90;;;0.60;;
24357;SDS011;13668;52.154;5.580;2022-07-15T13:17:02;0.88;;;0.50;;
24357;SDS011;13668;52.154;5.580;2022-07-15T13:19:28;0.82;;;0.38;;
24357;SDS011;13668;52.154;5.580;2022-07-15T13:21:54;0.63;;;0.40;;
24357;SDS011;13668;52.154;5.580;2022-07-15T13:24:20;2.05;;;0.50;;
24357;SDS011;13668;52.154;5.580;2022-07-15T13:26:46;1.48;;;0.47;;
24357;SDS011;13668;52.154;5.580;2022-07-15T13:29:12;0.82;;;0.47;;
24357;SDS011;13668;52.154;5.580;2022-07-15T13:31:38;0.98;;;0.50;;
24357;SDS011;13668;52.154;5.580;2022-07-15T13:34:05;3.10;;;0.50;;
24357;SDS011;13668;52.154;5.580;2022-07-15T13:36:31;1.73;;;0.55;;
24357;SDS011;13668;52.154;5.580;2022-07-15T13:38:57;1.58;;;0.60;;
24357;SDS011;13668;52.154;5.580;2022-07-15T13:41:23;1.42;;;0.50;;
24357;SDS011;13668;52.154;5.580;2022-07-15T13:43:49;1.52;;;0.52;;
24357;SDS011;13668;52.154;5.580;2022-07-15T13:46:15;1.10;;;0.70;;
24357;SDS011;13668;52.154;5.580;2022-07-15T13:48:41;1.08;;;0.60;;
24357;SDS011;13668;52.154;5.580;2022-07-15T13:51:07;1.40;;;0.77;;
24357;SDS011;13668;52.154;5.580;2022-07-15T13:53:52;2.13;;;0.65;;
24357;SDS011;13668;52.154;5.580;2022-07-15T13:56:18;6.15;;;0.90;;
24357;SDS011;13668;52.154;5.580;2022-07-15T13:58:45;2.97;;;0.60;;
24357;SDS011;13668;52.154;5.580;2022-07-15T14:01:11;2.63;;;0.93;;
24357;SDS011;13668;52.154;5.580;2022-07-15T14:03:37;2.28;;;0.75;;
24357;SDS011;13668;52.154;5.580;2022-07-15T14:06:03;1.77;;;1.67;;
24357;SDS011;13668;52.154;5.580;2022-07-15T14:08:29;1.83;;;1.00;;
24357;SDS011;13668;52.154;5.580;2022-07-15T14:10:55;2.03;;;1.27;;
24357;SDS011;13668;52.154;5.580;2022-07-15T14:13:21;1.52;;;0.70;;
24357;SDS011;13668;52.154;5.580;2022-07-15T14:15:47;2.90;;;0.90;;
24357;SDS011;13668;52.154;5.580;2022-07-15T14:18:14;5.22;;;2.05;;
24357;SDS011;13668;52.154;5.580;2022-07-15T14:20:40;9.50;;;5.35;;
24357;SDS011;13668;52.154;5.580;2022-07-15T14:23:11;4.10;;;2.22;;
24357;SDS011;13668;52.154;5.580;2022-07-15T14:25:37;3.05;;;0.90;;
24357;SDS011;13668;52.154;5.580;2022-07-15T14:28:03;3.83;;;2.33;;
24357;SDS011;13668;52.154;5.580;2022-07-15T14:30:29;2.95;;;1.40;;
24357;SDS011;13668;52.154;5.580;2022-07-15T14:32:55;3.72;;;1.52;;
24357;SDS011;13668;52.154;5.580;2022-07-15T14:35:21;1.30;;;1.20;;
24357;SDS011;13668;52.154;5.580;2022-07-15T14:37:47;1.05;;;0.95;;
24357;SDS011;13668;52.154;5.580;2022-07-15T14:40:13;1.30;;;1.20;;
24357;SDS011;13668;52.154;5.580;2022-07-15T14:42:39;1.55;;;1.00;;
24357;SDS011;13668;52.154;5.580;2022-07-15T14:45:06;2.00;;;0.90;;
24357;SDS011;13668;52.154;5.580;2022-07-15T14:47:32;2.45;;;1.00;;
24357;SDS011;13668;52.154;5.580;2022-07-15T14:49:58;2.53;;;0.98;;
24357;SDS011;13668;52.154;5.580;2022-07-15T14:52:24;1.83;;;0.90;;
24357;SDS011;13668;52.154;5.580;2022-07-15T14:54:50;1.80;;;0.80;;
24357;SDS011;13668;52.154;5.580;2022-07-15T14:57:16;2.28;;;1.10;;
24357;SDS011;13668;52.154;5.580;2022-07-15T14:59:42;3.10;;;0.98;;
24357;SDS011;13668;52.154;5.580;2022-07-15T15:02:08;4.80;;;1.10;;
24357;SDS011;13668;52.154;5.580;2022-07-15T15:04:35;2.08;;;0.95;;
24357;SDS011;13668;52.154;5.580;2022-07-15T15:07:01;0.80;;;0.80;;
24357;SDS011;13668;52.154;5.580;2022-07-15T15:09:27;3.30;;;1.00;;
24357;SDS011;13668;52.154;5.580;2022-07-15T15:11:53;1.35;;;0.80;;
24357;SDS011;13668;52.154;5.580;2022-07-15T15:14:19;1.63;;;1.00;;
24357;SDS011;13668;52.154;5.580;2022-07-15T15:16:45;3.15;;;1.10;;
24357;SDS011;13668;52.154;5.580;2022-07-15T15:19:11;2.67;;;0.98;;
24357;SDS011;13668;52.154;5.580;2022-07-15T15:21:37;4.05;;;0.95;;
24357;SDS011;13668;52.154;5.580;2022-07-15T15:24:03;4.38;;;1.13;;
24357;SDS011;13668;52.154;5.580;2022-07-15T15:26:31;3.10;;;0.70;;
24357;SDS011;13668;52.154;5.580;2022-07-15T15:28:57;1.92;;;1.05;;